Terminal Aerodrome Forecast
Issued by NWS

Current Version | Previous Version | Text Only | Print | Product List | Glossary On
Versions: 1 2 3 4 5 6 7 8 9 10 11 12 13 14 15 16 17 18 19 20 21 22 23 24 25 26 27 28 29 30
000
FTUS43 KLOT 052056 AAA
TAFDPA
TAF AMD
KDPA 052056Z 0521/0618 17011KT 1SM BR OVC002
     FM060400 15007KT 1/2SM FG OVC005
      TEMPO 0608/0612 1/4SM FG VV002
     FM061500 26007KT P6SM OVC006=

USA.gov is the U.S. government's official web portal to all federal, state and local government web resources and services.